MDPP/POP METAR and TAF weather

Enter ICAO airport designator
Station Type Date Time Source
MDPP METAR 2019/07/15 20:00 UTC NOAA

MDPP 152000Z 09015KT 9999 FEW025 33/24 Q1015


Station Type Date Time Source
MDPP Decoded METAR 2019/07/15 20:00 UTC NOAA

Puerto Plata International, Dominican Republic (MDPP) 19-45N 070-33W
Jul 15, 2019 - 04:00 PM EDT / 2019.07.15 2000 UTC
Wind: from the E (090 degrees) at 17 MPH (15 KT):0
Visibility: greater than 7 mile(s):0
Sky conditions: mostly clear
Temperature: 91 F (33 C)
Heat index: 101.5 F (38.6 C):1
Dew Point: 75 F (24 C)
Relative Humidity: 59%
Pressure (altimeter): 29.97 in. Hg (1015 hPa)
ob: MDPP 152000Z 09015KT 9999 FEW025 33/24 Q1015
cycle: 20

Station Type Date Time Source
MDPP TAF 2019/07/15 18:43 UTC NOAA

TAF MDPP 151600Z 1518/1618 12010KT 9999 SCT022 SCT070 PROB30 1518/1522 8000-RA BKN018

Example: see airport list